Time;durP1;ratioP1;P1;durP2;ratioP2;P2;SDS_P1;SDS_P2;PMS_P1;PMS_P2;Temp;Humidity;BMP_temperature;BMP_pressure;BME280_temperature;BME280_humidity;BME280_pressure;Samples;Min_cycle;Max_cycle;Signal;HPM_P1;HPM_P2
2022/12/27 00:03:29;;;;;;;2.10;0.20;;;;;;;6.52;70.35;101169.00;10351746;28;20054;-65
2022/12/27 00:08:30;;;;;;;1.35;0.35;;;;;;;6.52;70.19;101172.50;10331544;28;20238;-65
2022/12/27 00:13:31;;;;;;;1.02;0.30;;;;;;;6.49;70.96;101170.09;10348620;28;20058;-65
2022/12/27 00:18:33;;;;;;;3.50;0.75;;;;;;;6.44;70.38;101166.97;10354607;28;20064;-66
2022/12/27 00:23:37;;;;;;;3.05;0.60;;;;;;;6.35;70.71;101179.25;10352309;28;20034;-64
2022/12/27 00:28:38;;;;;;;1.85;0.50;;;;;;;6.25;71.18;101191.69;10346375;28;20085;-62
2022/12/27 00:33:41;;;;;;;2.95;0.50;;;;;;;6.14;71.38;101197.06;10358534;28;20046;-65
2022/12/27 00:38:43;;;;;;;5.28;0.43;;;;;;;6.01;71.32;101188.38;10356033;28;20081;-65
2022/12/27 00:43:45;;;;;;;3.33;0.50;;;;;;;5.95;71.69;101198.56;10349265;28;20061;-64
2022/12/27 00:48:47;;;;;;;1.90;0.80;;;;;;;5.95;71.69;101203.06;10349901;28;20046;-65
2022/12/27 00:53:49;;;;;;;2.45;0.70;;;;;;;5.87;72.53;101210.81;10333050;28;21018;-65
2022/12/27 00:58:56;;;;;;;2.30;0.70;;;;;;;5.79;73.04;101206.09;10355050;28;20073;-66
2022/12/27 01:03:58;;;;;;;4.15;0.85;;;;;;;5.75;73.17;101202.00;10350663;28;20051;-64
2022/12/27 01:09:01;;;;;;;2.65;0.63;;;;;;;5.71;73.10;101212.06;10350849;28;20022;-64
2022/12/27 01:14:04;;;;;;;5.65;0.90;;;;;;;5.77;73.54;101213.38;10346860;28;20066;-65
2022/12/27 01:19:05;;;;;;;6.25;0.90;;;;;;;5.81;73.16;101224.66;10350452;28;20090;-65
2022/12/27 01:24:07;;;;;;;5.57;0.93;;;;;;;5.79;72.72;101218.59;10348678;28;20062;-66
2022/12/27 01:29:11;;;;;;;0.98;0.50;;;;;;;5.78;73.14;101236.41;10355196;28;20058;-64
2022/12/27 01:34:13;;;;;;;1.33;0.73;;;;;;;5.80;73.67;101237.13;10349341;28;20054;-66
2022/12/27 01:39:14;;;;;;;2.10;0.95;;;;;;;5.74;73.27;101233.13;10350914;28;20038;-62
2022/12/27 01:49:49;;;;;;;3.15;0.68;;;;;;;5.67;73.87;101237.28;10353883;28;20064;-64
2022/12/27 01:54:55;;;;;;;4.30;0.70;;;;;;;5.69;74.01;101234.50;10344023;28;20053;-65
2022/12/27 01:59:57;;;;;;;2.60;0.85;;;;;;;5.72;73.29;101239.56;10328176;28;20046;-66
2022/12/27 02:04:59;;;;;;;5.47;0.60;;;;;;;5.74;73.59;101243.78;10306182;28;20047;-65
2022/12/27 02:10:02;;;;;;;6.82;0.70;;;;;;;5.74;74.04;101251.78;10304461;28;20133;-66
2022/12/27 02:15:03;;;;;;;5.63;0.80;;;;;;;5.67;73.79;101261.28;10305230;28;20051;-66
2022/12/27 02:20:14;;;;;;;4.00;1.48;;;;;;;5.67;74.41;101269.28;10304299;28;20450;-65
2022/12/27 02:25:49;;;;;;;6.28;0.93;;;;;;;5.69;74.19;101267.34;10301079;28;20132;-66
2022/12/27 02:31:02;;;;;;;3.65;0.60;;;;;;;5.73;73.99;101262.63;10304575;28;20121;-66
2022/12/27 02:36:09;;;;;;;6.15;0.90;;;;;;;5.70;74.21;101271.69;10302085;28;20764;-65
2022/12/27 02:57:42;;;;;;;3.53;0.50;;;;;;;5.81;73.91;101307.38;10298588;28;20090;-66
2022/12/27 03:08:27;;;;;;;0.80;0.40;;;;;;;5.86;73.22;101294.50;10305689;28;20046;-66
2022/12/27 03:25:26;;;;;;;5.57;0.40;;;;;;;5.86;73.92;101283.81;10306759;28;20108;-66
2022/12/27 03:35:27;;;;;;;5.95;0.50;;;;;;;5.94;73.41;101286.72;10304428;28;20149;-66
2022/12/27 03:46:37;;;;;;;4.80;0.30;;;;;;;6.04;73.54;101293.06;10295354;28;20081;-65
2022/12/27 03:51:46;;;;;;;6.53;0.60;;;;;;;6.04;73.30;101293.06;10296026;28;20078;-66
2022/12/27 03:56:48;;;;;;;3.25;0.40;;;;;;;5.95;73.09;101299.97;10298416;28;20066;-66
2022/12/27 04:01:49;;;;;;;4.50;0.38;;;;;;;5.89;73.02;101297.78;10284618;28;20145;-66
2022/12/27 04:06:51;;;;;;;2.85;0.30;;;;;;;5.90;73.10;101288.78;10302182;28;20053;-66
2022/12/27 04:38:31;;;;;;;3.97;1.33;;;;;;;5.29;74.41;101297.13;10299290;28;20105;-66
2022/12/27 05:05:03;;;;;;;5.93;0.68;;;;;;;5.18;74.13;101321.09;10294482;28;20051;-66
2022/12/27 05:15:25;;;;;;;3.67;0.80;;;;;;;5.16;73.57;101321.19;10298966;28;20054;-66
2022/12/27 05:20:27;;;;;;;3.33;1.58;;;;;;;5.08;74.08;101330.75;10280641;28;20473;-66
2022/12/27 05:25:34;;;;;;;5.45;1.52;;;;;;;5.00;73.93;101335.81;10297972;28;20121;-66
2022/12/27 05:30:37;;;;;;;4.40;0.77;;;;;;;4.91;74.55;101335.50;10297410;28;20070;-66
2022/12/27 05:35:39;;;;;;;2.38;0.52;;;;;;;4.98;73.95;101349.25;10300631;28;20145;-65
2022/12/27 05:40:40;;;;;;;3.08;1.13;;;;;;;4.89;74.13;101344.59;10301122;28;20077;-66
2022/12/27 05:45:41;;;;;;;5.93;0.60;;;;;;;4.92;73.89;101349.72;10304259;28;20042;-65
2022/12/27 05:50:43;;;;;;;4.28;0.70;;;;;;;4.91;73.83;101356.81;10300172;28;20660;-66
2022/12/27 05:55:53;;;;;;;4.78;0.60;;;;;;;4.90;74.35;101359.63;10307614;28;20598;-66
2022/12/27 06:00:54;;;;;;;2.28;0.60;;;;;;;4.86;74.01;101367.00;10301808;28;20066;-66
2022/12/27 06:06:00;;;;;;;7.30;0.52;;;;;;;4.88;73.86;101372.22;10302522;28;20084;-65
2022/12/27 06:11:16;;;;;;;2.90;0.65;;;;;;;4.89;73.81;101365.91;10297829;28;20066;-66
2022/12/27 06:16:19;;;;;;;6.82;1.00;;;;;;;4.89;74.11;101382.72;10303814;28;20138;-65
2022/12/27 06:21:21;;;;;;;3.75;0.70;;;;;;;4.94;73.93;101393.91;10300277;28;20078;-65
2022/12/27 06:26:25;;;;;;;8.93;1.00;;;;;;;4.93;73.30;101404.69;10302958;28;20084;-66
2022/12/27 06:31:27;;;;;;;7.63;0.90;;;;;;;4.86;73.96;101406.94;10301883;28;20544;-66
2022/12/27 06:36:29;;;;;;;6.15;1.77;;;;;;;4.83;73.83;101412.50;10304864;28;20413;-66
2022/12/27 06:41:30;;;;;;;6.88;3.22;;;;;;;4.85;73.77;101399.91;10303220;28;20664;-66
2022/12/27 06:46:31;;;;;;;8.10;0.80;;;;;;;4.77;73.96;101392.47;10302640;28;20065;-66
2022/12/27 06:51:33;;;;;;;4.30;1.83;;;;;;;4.70;73.66;101398.38;10313593;28;20129;-66
2022/12/27 06:56:34;;;;;;;4.70;1.35;;;;;;;4.71;74.13;101406.25;10303819;28;20101;-66
2022/12/27 07:01:36;;;;;;;4.95;1.92;;;;;;;4.70;73.85;101411.69;10305583;28;20112;-65
2022/12/27 07:06:37;;;;;;;2.30;0.70;;;;;;;4.69;73.78;101408.16;10308981;28;20129;-66
2022/12/27 07:11:39;;;;;;;4.65;0.73;;;;;;;4.60;74.05;101431.94;10302590;28;20074;-65
2022/12/27 07:16:40;;;;;;;5.13;0.85;;;;;;;4.47;74.04;101435.50;10299409;28;20159;-65
2022/12/27 07:21:41;;;;;;;2.78;1.38;;;;;;;4.42;73.78;101434.13;10304485;28;20062;-66
2022/12/27 07:26:43;;;;;;;3.75;1.30;;;;;;;4.44;74.04;101442.84;10309607;28;20062;-68
2022/12/27 07:31:44;;;;;;;6.82;1.63;;;;;;;4.41;73.69;101443.09;10307228;28;20157;-69
2022/12/27 07:36:46;;;;;;;4.18;1.27;;;;;;;4.40;73.66;101444.03;10300451;28;20050;-68
2022/12/27 07:41:47;;;;;;;10.45;2.45;;;;;;;4.40;74.15;101444.88;10301852;28;20137;-69
2022/12/27 07:46:49;;;;;;;7.25;2.15;;;;;;;4.41;74.46;101456.41;10301804;28;20145;-69
2022/12/27 07:51:51;;;;;;;8.93;1.40;;;;;;;4.45;74.29;101465.88;10284535;28;20082;-68
2022/12/27 07:56:52;;;;;;;8.10;1.98;;;;;;;4.54;74.33;101482.03;10303844;28;21409;-68
2022/12/27 08:02:03;;;;;;;6.15;1.88;;;;;;;4.57;73.98;101486.28;10299447;28;20069;-69
2022/12/27 08:07:10;;;;;;;3.30;1.92;;;;;;;4.55;74.37;101491.72;10296425;28;20061;-69
2022/12/27 08:12:12;;;;;;;8.05;3.33;;;;;;;4.61;74.57;101497.56;10298054;28;20122;-68
2022/12/27 08:17:21;;;;;;;8.88;2.47;;;;;;;4.61;74.63;101481.59;10301767;28;20162;-69
2022/12/27 08:28:38;;;;;;;5.45;2.03;;;;;;;4.75;74.59;101484.97;10303456;28;20038;-68
2022/12/27 08:33:40;;;;;;;5.53;1.88;;;;;;;4.80;74.79;101489.97;10287902;28;20051;-68
2022/12/27 08:38:42;;;;;;;10.15;2.13;;;;;;;4.86;74.59;101499.31;10298677;28;20046;-68
2022/12/27 08:43:43;;;;;;;9.40;2.35;;;;;;;4.90;75.12;101498.16;10303131;28;20139;-68
2022/12/27 08:48:48;;;;;;;6.85;3.15;;;;;;;4.97;74.89;101502.06;10285946;28;20201;-68
2022/12/27 08:53:50;;;;;;;10.48;2.47;;;;;;;5.11;75.63;101495.72;10275336;28;20137;-68
2022/12/27 08:58:51;;;;;;;10.95;3.28;;;;;;;5.19;75.22;101496.00;10298977;28;20055;-69
2022/12/27 09:03:53;;;;;;;5.72;2.72;;;;;;;5.20;76.03;101495.06;10304484;28;20077;-68
2022/12/27 09:08:55;;;;;;;7.80;2.55;;;;;;;5.29;75.77;101507.72;10295651;28;20050;-68
2022/12/27 09:13:59;;;;;;;9.20;2.90;;;;;;;5.35;75.38;101503.72;10288081;28;20147;-68
2022/12/27 09:19:02;;;;;;;11.35;2.85;;;;;;;5.43;75.93;101509.38;10305567;28;20054;-68
2022/12/27 09:24:04;;;;;;;11.73;2.70;;;;;;;5.54;75.86;101513.91;10296384;28;20140;-70
2022/12/27 09:29:05;;;;;;;5.78;2.92;;;;;;;5.63;76.12;101513.22;10288638;28;20161;-68
2022/12/27 09:34:09;;;;;;;10.15;3.42;;;;;;;5.66;76.20;101507.63;10294351;28;20105;-68
2022/12/27 09:39:12;;;;;;;7.22;3.03;;;;;;;5.59;76.83;101506.41;10294872;28;20070;-68
2022/12/27 09:44:35;;;;;;;10.57;2.85;;;;;;;5.70;76.53;101511.78;10301341;28;20096;-64
2022/12/27 09:49:47;;;;;;;5.53;2.45;;;;;;;5.76;76.00;101516.63;10291270;28;20414;-63
2022/12/27 09:55:04;;;;;;;6.90;2.65;;;;;;;5.80;76.36;101525.28;10306824;28;20089;-64
2022/12/27 10:00:14;;;;;;;9.50;2.28;;;;;;;5.85;76.31;101523.13;10305705;28;20052;-62
2022/12/27 10:05:27;;;;;;;6.55;2.78;;;;;;;5.98;76.48;101512.38;10315729;28;20043;-62
2022/12/27 10:11:07;;;;;;;8.73;1.90;;;;;;;6.07;76.30;101513.50;10302764;28;20050;-63
2022/12/27 10:16:49;;;;;;;4.50;1.88;;;;;;;6.21;76.48;101518.63;10222058;28;20038;-65
2022/12/27 10:22:15;;;;;;;6.43;2.38;;;;;;;6.35;75.96;101521.06;10311582;28;20096;-64
2022/12/27 10:27:27;;;;;;;8.02;2.38;;;;;;;6.43;76.30;101517.78;10306797;28;20109;-64
2022/12/27 10:32:29;;;;;;;7.30;3.10;;;;;;;6.49;76.09;101517.31;10305111;28;20074;-62
2022/12/27 10:37:30;;;;;;;6.97;2.00;;;;;;;6.54;75.10;101522.31;10303630;28;20084;-62
2022/12/27 10:42:40;;;;;;;14.75;2.63;;;;;;;6.65;74.97;101516.09;10305885;28;20060;-64
2022/12/27 10:47:41;;;;;;;5.63;2.33;;;;;;;6.72;75.38;101520.84;10303907;28;20077;-63
2022/12/27 10:52:43;;;;;;;11.05;3.13;;;;;;;6.61;75.78;101520.84;10303590;28;20133;-63
2022/12/27 10:57:44;;;;;;;5.63;1.60;;;;;;;6.67;75.49;101517.69;10302687;28;20066;-63
2022/12/27 11:02:54;;;;;;;6.65;2.08;;;;;;;6.74;75.37;101502.88;10303620;28;20058;-63
2022/12/27 11:07:56;;;;;;;8.30;2.85;;;;;;;6.84;75.11;101502.97;10302210;28;20105;-62
2022/12/27 11:13:05;;;;;;;7.95;2.70;;;;;;;7.00;74.42;101510.63;10303524;28;20578;-63
2022/12/27 11:18:15;;;;;;;8.75;2.88;;;;;;;7.06;74.41;101509.28;10307298;28;20134;-63
2022/12/27 11:23:19;;;;;;;9.70;1.83;;;;;;;7.13;74.41;101510.47;10307161;28;20078;-65
2022/12/27 11:28:44;;;;;;;6.15;2.17;;;;;;;7.11;73.82;101512.44;10302145;28;20809;-65
2022/12/27 11:33:46;;;;;;;8.43;2.33;;;;;;;7.19;74.83;101506.44;10299712;28;20497;-64
2022/12/27 11:38:49;;;;;;;6.88;2.42;;;;;;;7.23;74.10;101494.53;10307569;28;20454;-64
2022/12/27 11:43:56;;;;;;;7.72;2.20;;;;;;;7.25;74.36;101498.78;10309421;28;20071;-64
2022/12/27 11:48:57;;;;;;;5.05;2.28;;;;;;;7.29;73.83;101500.22;10306647;28;20042;-64
2022/12/27 11:54:29;;;;;;;5.20;2.00;;;;;;;7.37;73.57;101504.94;10306866;28;20149;-65
2022/12/27 11:59:52;;;;;;;8.90;2.08;;;;;;;7.52;73.71;101500.13;10301739;28;20082;-64
2022/12/27 12:05:06;;;;;;;4.82;2.10;;;;;;;7.65;73.77;101498.13;10297764;28;20125;-69
2022/12/27 12:10:47;;;;;;;5.72;2.03;;;;;;;7.67;73.73;101477.44;10297394;28;20106;-69
2022/12/27 12:16:02;;;;;;;10.48;3.08;;;;;;;7.71;73.92;101475.38;10299776;28;20154;-70
2022/12/27 12:21:24;;;;;;;12.15;2.35;;;;;;;7.71;73.72;101478.88;10304657;28;20054;-69
2022/12/27 12:26:34;;;;;;;6.20;2.25;;;;;;;7.71;72.97;101478.03;10303458;28;20137;-68
2022/12/27 12:32:04;;;;;;;10.32;1.80;;;;;;;7.77;73.43;101476.69;10307727;28;20130;-68
2022/12/27 12:37:35;;;;;;;6.97;1.77;;;;;;;7.83;73.23;101471.66;10305194;28;20054;-68
2022/12/27 12:42:59;;;;;;;9.80;1.58;;;;;;;7.82;72.74;101471.78;10307764;28;20046;-68
2022/12/27 12:48:11;;;;;;;7.60;2.22;;;;;;;7.91;73.05;101463.81;10289821;28;20565;-68
2022/12/27 12:53:49;;;;;;;10.73;2.72;;;;;;;7.87;72.45;101472.25;10298820;28;20508;-68
2022/12/27 12:58:56;;;;;;;8.50;2.20;;;;;;;7.93;72.33;101479.75;10295993;28;20082;-68
2022/12/27 13:04:34;;;;;;;7.27;1.60;;;;;;;7.98;72.34;101477.53;10281630;28;20069;-69
2022/12/27 13:09:50;;;;;;;10.48;2.05;;;;;;;8.05;72.04;101476.00;10294565;28;20074;-68
2022/12/27 13:15:16;;;;;;;5.20;1.38;;;;;;;8.27;72.23;101471.47;10268711;28;20181;-69
2022/12/27 13:20:56;;;;;;;8.25;1.67;;;;;;;8.42;71.75;101467.50;10297097;28;20046;-69
2022/12/27 13:26:22;;;;;;;5.28;1.20;;;;;;;8.51;72.31;101458.66;10247562;28;20070;-70
2022/12/27 13:31:53;;;;;;;4.20;1.73;;;;;;;8.60;71.82;101456.16;10299498;28;20082;-69
2022/12/27 13:37:14;;;;;;;3.10;1.10;;;;;;;8.67;71.80;101451.97;10297852;28;20528;-69
2022/12/27 13:42:55;;;;;;;7.22;1.70;;;;;;;8.77;71.73;101451.94;10301712;28;20145;-67
2022/12/27 13:48:08;;;;;;;4.53;0.93;;;;;;;8.68;71.16;101441.06;10256028;28;20075;-69
2022/12/27 13:53:22;;;;;;;7.68;1.42;;;;;;;8.72;71.32;101436.28;10303799;28;20145;-68
2022/12/27 13:58:33;;;;;;;4.25;0.85;;;;;;;8.67;71.24;101435.88;10305185;28;20464;-68
2022/12/27 14:04:00;;;;;;;5.70;0.70;;;;;;;8.72;70.75;101437.13;10304611;28;20144;-68
2022/12/27 14:09:15;;;;;;;3.35;0.80;;;;;;;8.79;70.50;101436.56;10302996;28;20054;-68
2022/12/27 14:14:19;;;;;;;6.53;1.13;;;;;;;8.78;70.52;101424.19;10290816;28;20386;-68
2022/12/27 14:19:48;;;;;;;9.60;1.73;;;;;;;8.70;70.60;101431.06;10288673;28;20467;-67
2022/12/27 14:25:34;;;;;;;6.70;1.40;;;;;;;8.50;70.44;101432.84;10303184;28;20051;-69
2022/12/27 14:30:57;;;;;;;6.57;1.50;;;;;;;8.45;70.49;101437.78;10303316;28;20082;-69
2022/12/27 14:36:20;;;;;;;5.60;1.45;;;;;;;8.52;70.27;101430.88;10300489;28;20472;-69
2022/12/27 14:41:59;;;;;;;8.93;1.98;;;;;;;8.51;70.26;101421.16;10299657;28;20137;-69
2022/12/27 14:47:37;;;;;;;8.23;1.80;;;;;;;8.47;69.96;101422.41;10292043;28;20100;-69
2022/12/27 14:53:17;;;;;;;10.55;2.03;;;;;;;8.41;70.34;101430.09;10303286;28;20089;-69
2022/12/27 14:58:52;;;;;;;9.18;1.80;;;;;;;8.32;70.77;101431.75;10302907;28;20062;-69
2022/12/27 15:04:07;;;;;;;6.40;1.67;;;;;;;8.24;70.81;101442.31;10306232;28;20054;-70
2022/12/27 15:09:44;;;;;;;9.13;2.55;;;;;;;8.18;70.63;101441.00;10306454;28;20074;-69
2022/12/27 15:14:50;;;;;;;4.70;1.98;;;;;;;8.16;70.24;101437.59;10304086;28;20078;-68
2022/12/27 15:20:43;;;;;;;8.25;2.60;;;;;;;8.18;70.65;101442.84;10305514;28;20078;-69
2022/12/27 15:26:06;;;;;;;6.78;2.10;;;;;;;8.08;70.75;101440.94;10285974;28;20142;-68
2022/12/27 15:31:30;;;;;;;8.18;2.58;;;;;;;7.99;70.15;101432.84;10299144;28;20138;-69
2022/12/27 15:36:37;;;;;;;8.80;2.00;;;;;;;7.97;69.94;101432.16;10300617;28;20046;-69
2022/12/27 15:41:45;;;;;;;7.72;1.88;;;;;;;7.86;70.79;101430.38;10305427;28;20105;-69
2022/12/27 15:47:14;;;;;;;7.05;2.10;;;;;;;7.77;70.94;101424.00;10297367;28;20535;-72
2022/12/27 15:52:30;;;;;;;8.55;2.05;;;;;;;7.78;70.61;101423.03;10306364;28;20074;-72
2022/12/27 15:57:52;;;;;;;9.27;1.67;;;;;;;7.72;69.82;101427.06;10284997;28;20070;-69
2022/12/27 16:02:56;;;;;;;5.68;1.30;;;;;;;7.71;69.92;101425.34;10288892;28;20137;-72
2022/12/27 16:07:57;;;;;;;6.90;1.40;;;;;;;7.64;70.22;101426.88;10285222;28;20054;-68
2022/12/27 16:13:08;;;;;;;6.82;1.20;;;;;;;7.60;70.87;101413.88;10274556;28;20093;-68
2022/12/27 16:18:50;;;;;;;9.52;1.42;;;;;;;7.52;70.95;101409.16;10300297;28;20414;-66
2022/12/27 16:24:02;;;;;;;5.53;1.60;;;;;;;7.48;70.33;101403.22;10291508;28;20101;-68
2022/12/27 16:29:12;;;;;;;8.85;1.52;;;;;;;7.42;70.74;101403.75;10273891;28;20129;-67
2022/12/27 16:34:22;;;;;;;4.75;2.00;;;;;;;7.36;70.78;101401.59;10295600;28;20565;-66
2022/12/27 16:39:39;;;;;;;10.63;2.33;;;;;;;7.29;70.65;101403.94;10300351;28;20052;-67
2022/12/27 16:44:51;;;;;;;6.05;2.05;;;;;;;7.22;70.96;101397.41;10298999;28;20046;-67
2022/12/27 16:50:24;;;;;;;5.13;2.35;;;;;;;7.23;70.58;101392.91;10300271;28;20133;-68
2022/12/27 16:55:47;;;;;;;4.68;1.80;;;;;;;7.11;70.60;101397.47;10295946;28;20967;-66
2022/12/27 17:00:51;;;;;;;10.18;2.25;;;;;;;7.04;71.21;101402.44;10292626;28;20129;-66
2022/12/27 17:05:53;;;;;;;11.43;2.95;;;;;;;7.02;71.07;101401.72;10295419;28;20049;-66
2022/12/27 17:11:30;;;;;;;7.93;2.80;;;;;;;7.02;70.92;101400.88;10304037;28;20054;-65
2022/12/27 17:16:40;;;;;;;12.15;3.97;;;;;;;7.03;70.36;101395.44;10296717;28;20153;-65
2022/12/27 17:21:44;;;;;;;8.35;1.95;;;;;;;6.99;70.56;101393.97;10296784;28;20042;-65
2022/12/27 17:27:06;;;;;;;10.20;2.55;;;;;;;6.93;71.16;101394.47;10294357;28;20105;-65
2022/12/27 17:32:23;;;;;;;6.32;2.10;;;;;;;6.87;71.71;101379.81;10281240;28;20101;-65
2022/12/27 17:37:55;;;;;;;10.63;2.22;;;;;;;6.84;71.39;101371.19;10298769;28;20415;-66
2022/12/27 17:49:06;;;;;;;8.52;2.92;;;;;;;6.78;71.08;101369.03;10286694;28;20070;-67
2022/12/27 17:59:58;;;;;;;13.13;3.90;;;;;;;6.83;71.15;101369.47;10282669;28;20498;-68
2022/12/27 18:05:04;;;;;;;6.70;2.80;;;;;;;6.90;71.39;101360.84;10338908;28;20057;-69
2022/12/27 18:10:17;;;;;;;10.43;3.60;;;;;;;6.93;70.98;101343.69;10321605;28;20081;-68
2022/12/27 18:15:21;;;;;;;11.27;3.85;;;;;;;6.88;70.58;101344.06;10339632;28;20082;-67
2022/12/27 18:20:25;;;;;;;9.80;3.50;;;;;;;6.82;70.74;101335.72;10335380;28;20086;-67
2022/12/27 18:25:42;;;;;;;13.10;4.07;;;;;;;6.81;70.79;101350.88;10339149;28;20050;-66
2022/12/27 18:30:52;;;;;;;9.93;3.55;;;;;;;6.73;71.28;101346.22;10336725;28;20501;-66
2022/12/27 18:35:54;;;;;;;10.20;3.63;;;;;;;6.69;71.33;101341.22;10346283;28;20105;-67
2022/12/27 18:41:10;;;;;;;14.68;4.88;;;;;;;6.70;70.45;101334.91;10342361;28;20153;-66
2022/12/27 18:46:22;;;;;;;10.65;4.28;;;;;;;6.69;70.75;101327.84;10346214;28;20136;-67
2022/12/27 18:51:42;;;;;;;7.75;3.80;;;;;;;6.69;71.15;101326.03;10345052;28;20137;-66
2022/12/27 18:56:43;;;;;;;9.07;3.67;;;;;;;6.66;71.06;101331.66;10338864;28;20070;-66
2022/12/27 19:01:46;;;;;;;8.73;4.03;;;;;;;6.71;70.88;101329.44;10341231;28;20042;-66
2022/12/27 19:06:55;;;;;;;9.43;3.47;;;;;;;6.72;70.50;101328.47;10343788;28;20129;-67
2022/12/27 19:11:59;;;;;;;9.20;3.50;;;;;;;6.71;70.21;101328.59;10347695;28;20185;-65
2022/12/27 19:17:01;;;;;;;18.70;4.13;;;;;;;6.69;70.13;101325.19;10343584;28;20053;-66
2022/12/27 19:22:29;;;;;;;10.70;3.47;;;;;;;6.69;71.05;101311.84;10331573;28;20052;-66
2022/12/27 19:27:31;;;;;;;8.45;3.50;;;;;;;6.67;70.88;101303.09;10338794;28;20142;-67
2022/12/27 19:32:34;;;;;;;12.77;4.50;;;;;;;6.66;70.06;101296.91;10344311;28;20464;-66
2022/12/27 19:37:35;;;;;;;10.73;5.53;;;;;;;6.58;70.75;101294.03;10344584;28;20140;-66
2022/12/27 19:42:38;;;;;;;28.60;11.13;;;;;;;6.43;70.87;101293.47;10342050;28;20082;-67
2022/12/27 19:47:39;;;;;;;30.20;12.73;;;;;;;6.37;70.61;101277.94;10342074;28;20092;-66
2022/12/27 19:52:42;;;;;;;24.67;9.70;;;;;;;6.26;70.24;101270.81;10341505;28;20045;-67
2022/12/27 19:57:43;;;;;;;22.85;10.00;;;;;;;6.09;70.57;101268.66;10352103;28;20042;-67
2022/12/27 20:02:45;;;;;;;20.45;8.57;;;;;;;6.01;70.52;101261.28;10344590;28;20133;-66
2022/12/27 20:07:47;;;;;;;16.42;8.02;;;;;;;5.89;70.61;101267.56;10324186;28;20054;-67
2022/12/27 20:12:48;;;;;;;21.15;9.23;;;;;;;5.90;71.17;101258.59;10338684;28;20069;-67
2022/12/27 20:17:50;;;;;;;16.35;7.80;;;;;;;5.91;70.44;101271.81;10345513;28;20066;-66
2022/12/27 20:22:51;;;;;;;19.42;9.40;;;;;;;5.89;70.83;101247.06;10346927;28;20137;-66
2022/12/27 20:27:52;;;;;;;23.63;9.90;;;;;;;5.90;70.49;101247.91;10345917;28;20128;-67
2022/12/27 20:32:54;;;;;;;17.33;9.80;;;;;;;5.94;70.81;101233.34;10329581;28;20447;-66
2022/12/27 20:37:55;;;;;;;19.52;9.90;;;;;;;5.95;70.51;101238.59;10334660;28;20137;-67
2022/12/27 20:42:57;;;;;;;12.40;6.72;;;;;;;5.95;71.35;101235.94;10338970;28;20096;-66
2022/12/27 20:47:59;;;;;;;14.55;5.00;;;;;;;6.00;71.39;101224.03;10342564;28;20069;-66
2022/12/27 20:53:00;;;;;;;12.77;5.03;;;;;;;6.04;71.46;101229.00;10342531;28;20456;-66
2022/12/27 20:58:02;;;;;;;23.55;6.22;;;;;;;6.13;72.22;101233.59;10341813;28;20035;-65
2022/12/27 21:03:03;;;;;;;9.75;4.93;;;;;;;6.29;71.78;101217.16;10331404;28;20076;-66
2022/12/27 21:08:05;;;;;;;13.50;4.05;;;;;;;6.37;71.87;101224.53;10348453;28;20108;-65
2022/12/27 21:13:06;;;;;;;7.75;3.90;;;;;;;6.48;72.01;101213.81;10340316;28;20054;-67
2022/12/27 21:18:08;;;;;;;11.50;3.80;;;;;;;6.62;72.05;101222.50;10342015;28;20401;-66
2022/12/27 21:23:09;;;;;;;9.63;4.20;;;;;;;6.70;71.50;101218.19;10343294;28;20077;-65
2022/12/27 21:28:10;;;;;;;11.40;4.53;;;;;;;6.74;71.46;101221.47;10343859;28;20112;-66
2022/12/27 21:33:12;;;;;;;13.32;4.45;;;;;;;6.75;71.86;101207.13;10344675;28;20576;-66
2022/12/27 21:38:13;;;;;;;14.65;4.72;;;;;;;6.81;72.41;101198.56;10340885;28;20049;-67
2022/12/27 21:43:14;;;;;;;14.73;4.72;;;;;;;6.91;72.38;101193.28;10337401;28;20141;-66
2022/12/27 21:48:16;;;;;;;14.25;5.10;;;;;;;6.97;72.23;101189.25;10338124;28;20165;-65
2022/12/27 21:53:18;;;;;;;14.07;4.50;;;;;;;7.07;72.72;101182.13;10343813;28;20573;-64
2022/12/27 21:58:19;;;;;;;13.70;4.80;;;;;;;7.13;72.14;101173.59;10342422;28;20081;-65
2022/12/27 22:03:21;;;;;;;10.40;4.45;;;;;;;7.18;71.98;101174.03;10341669;28;20064;-66
2022/12/27 22:08:22;;;;;;;13.75;4.90;;;;;;;7.24;71.79;101165.47;10348500;28;20143;-65
2022/12/27 22:13:24;;;;;;;14.88;4.65;;;;;;;7.24;71.99;101156.59;10348488;28;20140;-66
2022/12/27 22:18:25;;;;;;;10.35;4.28;;;;;;;7.29;72.04;101141.84;10350632;28;20526;-66
2022/12/27 22:23:35;;;;;;;10.75;3.45;;;;;;;7.28;71.69;101142.81;10343468;28;20142;-65
2022/12/27 22:28:38;;;;;;;10.75;4.13;;;;;;;7.19;72.11;101142.78;10347250;28;20551;-66
2022/12/27 22:33:39;;;;;;;8.90;3.85;;;;;;;7.19;72.55;101137.44;10342833;28;20125;-65
2022/12/27 22:38:41;;;;;;;9.73;3.70;;;;;;;7.14;72.33;101137.84;10346457;28;20053;-66
2022/12/27 22:43:48;;;;;;;10.35;3.95;;;;;;;7.06;72.86;101135.00;10336595;28;20058;-66
2022/12/27 22:48:55;;;;;;;10.73;3.28;;;;;;;7.06;72.90;101140.34;10341927;28;20129;-65
2022/12/27 22:53:58;;;;;;;12.55;3.88;;;;;;;7.10;72.53;101153.31;10344220;28;20133;-66
2022/12/27 22:59:00;;;;;;;10.88;3.22;;;;;;;7.17;72.56;101132.25;10345920;28;20140;-66
2022/12/27 23:04:04;;;;;;;8.52;3.05;;;;;;;7.12;72.15;101121.94;10343321;28;20138;-65
2022/12/27 23:09:06;;;;;;;10.18;3.10;;;;;;;7.13;72.46;101133.50;10347225;28;20579;-66
2022/12/27 23:14:13;;;;;;;6.70;2.95;;;;;;;7.04;72.82;101126.28;10340862;28;20497;-65
2022/12/27 23:19:18;;;;;;;7.43;4.55;;;;;;;7.12;72.05;101116.59;10334949;28;20085;-66
2022/12/27 23:24:19;;;;;;;10.45;3.65;;;;;;;7.23;71.92;101114.81;10339136;28;20081;-66
2022/12/27 23:29:21;;;;;;;8.25;3.40;;;;;;;7.29;71.16;101107.09;10341352;28;20133;-66
2022/12/27 23:34:23;;;;;;;9.88;3.83;;;;;;;7.27;71.06;101097.53;10340552;28;20729;-66
2022/12/27 23:39:28;;;;;;;12.77;4.75;;;;;;;7.29;71.56;101093.72;10341181;28;20141;-66
2022/12/27 23:44:30;;;;;;;10.77;4.22;;;;;;;7.22;71.89;101089.06;10340220;28;20054;-66
2022/12/27 23:49:35;;;;;;;8.60;3.70;;;;;;;7.12;71.75;101078.31;10336022;28;20480;-66
2022/12/27 23:54:36;;;;;;;9.05;4.72;;;;;;;7.03;71.38;101071.09;10348017;28;20061;-66
2022/12/27 23:59:37;;;;;;;11.45;4.00;;;;;;;7.03;71.78;101060.41;10340577;28;20141;-66
